Time;durP1;ratioP1;P1;durP2;ratioP2;P2;SDS_P1;SDS_P2;PMS_P1;PMS_P2;Temp;Humidity;BMP_temperature;BMP_pressure;BME280_temperature;BME280_humidity;BME280_pressure;Samples;Min_cycle;Max_cycle;Signal;HPM_P1;HPM_P2
2021/01/25 00:01:24;;;;;;;5.13;4.63;;;3.90;87.30;;;;;;10354618;28;20205;-84
2021/01/25 00:06:26;;;;;;;4.83;4.30;;;4.00;84.40;;;;;;10352729;28;20227;-83
2021/01/25 00:11:28;;;;;;;5.80;5.30;;;3.90;85.30;;;;;;10352014;28;20298;-85
2021/01/25 00:16:30;;;;;;;6.00;5.00;;;3.90;85.70;;;;;;10352775;28;20223;-83
2021/01/25 00:21:36;;;;;;;5.70;5.10;;;3.80;85.00;;;;;;10353016;28;20190;-83
2021/01/25 00:26:38;;;;;;;5.00;4.60;;;3.70;85.40;;;;;;10358272;28;20298;-84
2021/01/25 00:31:39;;;;;;;4.90;4.50;;;3.50;84.30;;;;;;10354441;28;20242;-82
2021/01/25 00:36:44;;;;;;;4.33;3.93;;;3.30;84.90;;;;;;10367485;28;20246;-85
2021/01/25 00:41:49;;;;;;;4.83;4.43;;;3.10;85.40;;;;;;10353099;28;20677;-85
2021/01/25 00:46:50;;;;;;;4.13;3.70;;;3.10;85.50;;;;;;10350777;28;20223;-85
2021/01/25 00:51:53;;;;;;;5.23;4.70;;;3.10;86.10;;;;;;10335558;28;20679;-85
2021/01/25 00:56:54;;;;;;;5.20;3.93;;;3.20;86.90;;;;;;10354685;28;20581;-84
2021/01/25 01:01:59;;;;;;;5.60;3.97;;;3.20;85.70;;;;;;10323043;28;20199;-80
2021/01/25 01:07:01;;;;;;;4.10;3.70;;;3.30;86.20;;;;;;10356661;28;20219;-83
2021/01/25 01:12:07;;;;;;;3.93;3.53;;;3.30;85.30;;;;;;10347757;28;20207;-82
2021/01/25 01:17:09;;;;;;;4.40;4.00;;;3.40;84.50;;;;;;10366125;28;20246;-80
2021/01/25 01:22:11;;;;;;;4.00;3.70;;;3.50;84.50;;;;;;10322920;28;20206;-81
2021/01/25 01:27:13;;;;;;;3.93;3.50;;;3.50;84.50;;;;;;10319604;28;20215;-82
2021/01/25 01:32:15;;;;;;;4.13;3.73;;;3.60;85.40;;;;;;10322053;28;20578;-80
2021/01/25 01:37:17;;;;;;;4.70;3.50;;;3.70;87.50;;;;;;10304162;28;20225;-81
2021/01/25 01:42:20;;;;;;;4.30;3.50;;;3.60;86.40;;;;;;10300645;28;20231;-80
2021/01/25 01:47:22;;;;;;;5.20;3.63;;;3.60;85.10;;;;;;10334328;28;20242;-81
2021/01/25 01:52:24;;;;;;;4.03;3.73;;;3.60;86.40;;;;;;10316892;28;20219;-85
2021/01/25 01:57:28;;;;;;;4.43;3.80;;;3.50;88.00;;;;;;10315308;28;20230;-84
2021/01/25 02:02:31;;;;;;;3.80;3.37;;;3.40;87.90;;;;;;10311245;28;20278;-84
2021/01/25 02:07:33;;;;;;;3.67;3.40;;;3.50;87.80;;;;;;10333709;28;20203;-83
2021/01/25 02:12:36;;;;;;;4.43;4.03;;;3.50;88.00;;;;;;10300178;28;20257;-82
2021/01/25 02:17:38;;;;;;;3.50;3.20;;;3.50;87.50;;;;;;10317392;28;20195;-83
2021/01/25 02:22:59;;;;;;;3.50;3.20;;;3.40;88.70;;;;;;10309520;28;20199;-81
2021/01/25 02:28:02;;;;;;;4.47;4.00;;;3.40;89.60;;;;;;10299748;28;20294;-83
2021/01/25 02:33:04;;;;;;;3.43;3.13;;;3.40;89.90;;;;;;10317048;28;20231;-85
2021/01/25 02:38:09;;;;;;;5.07;3.83;;;3.40;90.40;;;;;;10299529;28;20202;-82
2021/01/25 02:43:13;;;;;;;3.00;2.80;;;3.50;90.40;;;;;;10314893;28;20211;-84
2021/01/25 02:48:15;;;;;;;3.63;3.30;;;3.50;90.30;;;;;;10315562;28;20199;-81
2021/01/25 02:53:16;;;;;;;3.90;3.23;;;3.50;90.40;;;;;;10315084;28;20309;-80
2021/01/25 02:58:20;;;;;;;3.83;3.50;;;3.60;90.60;;;;;;10299722;28;20225;-83
2021/01/25 03:03:23;;;;;;;4.67;4.17;;;3.60;90.60;;;;;;10321795;28;20203;-85
2021/01/25 03:08:25;;;;;;;5.23;4.77;;;3.70;90.40;;;;;;10323537;28;20200;-85
2021/01/25 03:13:29;;;;;;;5.53;5.03;;;3.70;90.70;;;;;;10307541;28;20251;-85
2021/01/25 03:18:31;;;;;;;5.07;4.63;;;3.80;91.10;;;;;;10341906;28;20722;-85
2021/01/25 03:23:32;;;;;;;5.33;4.93;;;3.80;91.50;;;;;;10309099;28;20215;-85
2021/01/25 03:28:35;;;;;;;4.83;4.43;;;3.80;92.40;;;;;;10317908;28;20208;-84
2021/01/25 03:33:36;;;;;;;5.83;5.33;;;3.80;93.40;;;;;;10305111;28;20234;-85
2021/01/25 03:38:38;;;;;;;5.40;5.00;;;3.70;93.90;;;;;;10314255;28;20215;-83
2021/01/25 03:43:41;;;;;;;5.67;5.27;;;3.60;94.90;;;;;;10307854;28;20271;-85
2021/01/25 03:48:42;;;;;;;5.43;4.93;;;3.40;95.70;;;;;;10310232;28;20249;-85
2021/01/25 03:53:44;;;;;;;5.73;5.23;;;3.30;96.80;;;;;;10311965;28;20317;-85
2021/01/25 03:58:46;;;;;;;5.87;5.30;;;3.30;97.90;;;;;;10311050;28;20708;-86
2021/01/25 04:03:48;;;;;;;6.20;5.60;;;3.20;98.60;;;;;;10328369;28;20215;-85
2021/01/25 04:08:49;;;;;;;5.10;4.70;;;3.20;99.30;;;;;;10326902;28;20203;-86
2021/01/25 04:13:52;;;;;;;5.63;5.13;;;3.20;99.20;;;;;;10311959;28;20262;-84
2021/01/25 04:18:54;;;;;;;4.87;4.57;;;3.20;99.40;;;;;;10313274;28;20218;-86
2021/01/25 04:23:56;;;;;;;5.70;5.30;;;3.20;99.30;;;;;;10316728;28;20282;-85
2021/01/25 04:28:58;;;;;;;4.20;3.90;;;3.10;99.70;;;;;;10352574;28;20226;-82
2021/01/25 04:34:00;;;;;;;5.40;4.90;;;3.10;99.90;;;;;;10318932;28;20234;-85
2021/01/25 04:39:02;;;;;;;5.53;5.13;;;3.10;99.90;;;;;;10312873;28;20230;-84
2021/01/25 04:44:05;;;;;;;5.77;5.20;;;3.10;99.90;;;;;;10330477;28;20831;-85
2021/01/25 04:49:07;;;;;;;5.50;5.10;;;3.00;99.90;;;;;;10324958;28;20219;-83
2021/01/25 04:54:09;;;;;;;5.20;4.80;;;3.00;99.90;;;;;;10324016;28;20231;-86
2021/01/25 04:59:12;;;;;;;6.60;6.00;;;2.90;99.90;;;;;;10310892;28;20206;-85
2021/01/25 05:04:14;;;;;;;6.40;5.87;;;3.00;99.90;;;;;;10309492;28;20211;-85
2021/01/25 05:09:15;;;;;;;5.60;5.20;;;3.00;99.90;;;;;;10300320;28;20202;-84
2021/01/25 05:14:20;;;;;;;6.03;5.53;;;3.10;99.90;;;;;;10296999;28;20234;-83
2021/01/25 05:19:25;;;;;;;6.37;5.80;;;3.00;99.90;;;;;;10303181;28;20207;-82
2021/01/25 05:24:27;;;;;;;6.33;5.83;;;3.00;99.90;;;;;;10318346;28;20215;-82
2021/01/25 05:29:30;;;;;;;7.23;6.63;;;3.00;99.90;;;;;;10335658;28;20183;-85
2021/01/25 05:34:31;;;;;;;7.10;6.50;;;2.90;99.90;;;;;;10338027;28;20225;-82
2021/01/25 05:39:33;;;;;;;7.27;6.63;;;3.00;99.90;;;;;;10380423;28;20209;-81
2021/01/25 05:44:35;;;;;;;6.17;5.53;;;3.00;99.90;;;;;;10343688;28;20611;-83
2021/01/25 05:49:38;;;;;;;7.63;7.03;;;3.00;99.90;;;;;;10363737;28;20190;-81
2021/01/25 05:54:39;;;;;;;7.07;6.47;;;3.00;99.90;;;;;;10344504;28;20845;-83
2021/01/25 05:59:42;;;;;;;8.27;7.63;;;3.00;99.90;;;;;;10378777;28;20678;-82
2021/01/25 06:04:44;;;;;;;7.30;6.70;;;3.00;99.90;;;;;;10361932;28;20233;-83
2021/01/25 06:09:52;;;;;;;7.50;6.90;;;3.00;99.90;;;;;;10347116;28;20222;-83
2021/01/25 06:15:02;;;;;;;10.93;7.80;;;3.00;99.90;;;;;;10323886;28;20257;-81
2021/01/25 06:20:06;;;;;;;9.37;8.53;;;3.00;99.90;;;;;;10340978;28;20230;-83
2021/01/25 06:25:09;;;;;;;8.50;7.80;;;2.90;99.90;;;;;;10358697;28;20222;-83
2021/01/25 06:30:13;;;;;;;8.40;7.60;;;2.90;99.90;;;;;;10344794;28;20265;-82
2021/01/25 06:35:17;;;;;;;8.87;8.17;;;2.90;99.90;;;;;;10359371;28;20229;-83
2021/01/25 06:40:23;;;;;;;7.53;6.83;;;2.90;99.90;;;;;;10377513;28;20211;-83
2021/01/25 06:45:26;;;;;;;8.07;7.37;;;2.90;99.90;;;;;;10379828;28;20210;-83
2021/01/25 06:50:28;;;;;;;8.87;8.07;;;2.90;99.90;;;;;;10385771;28;20291;-83
2021/01/25 06:55:31;;;;;;;9.33;8.53;;;2.90;99.90;;;;;;10364448;28;20241;-84
2021/01/25 07:00:34;;;;;;;9.10;8.30;;;2.90;99.90;;;;;;10363436;28;20262;-82
2021/01/25 07:05:37;;;;;;;8.27;7.53;;;2.90;99.90;;;;;;10362150;28;20214;-84
2021/01/25 07:10:47;;;;;;;9.90;9.00;;;2.90;99.90;;;;;;10361924;28;20734;-82
2021/01/25 07:15:50;;;;;;;8.77;7.97;;;3.00;99.90;;;;;;10345989;28;20218;-83
2021/01/25 07:20:53;;;;;;;9.63;8.67;;;3.00;99.90;;;;;;10354234;28;20253;-84
2021/01/25 07:25:56;;;;;;;7.70;6.97;;;3.00;99.90;;;;;;10371190;28;20222;-84
2021/01/25 07:30:59;;;;;;;7.90;7.20;;;3.00;99.90;;;;;;10379018;28;20222;-84
2021/01/25 07:36:01;;;;;;;9.30;8.30;;;3.00;99.90;;;;;;10361937;28;20218;-83
2021/01/25 07:41:03;;;;;;;10.13;8.90;;;3.10;99.90;;;;;;10387427;28;20651;-83
2021/01/25 07:46:07;;;;;;;11.93;10.60;;;3.10;99.90;;;;;;10353908;28;20587;-84
2021/01/25 07:51:12;;;;;;;16.97;12.80;;;3.20;99.90;;;;;;10353243;28;20238;-84
2021/01/25 07:56:18;;;;;;;10.17;9.17;;;3.30;99.90;;;;;;10392057;28;20230;-82
2021/01/25 08:01:24;;;;;;;10.17;8.93;;;3.30;99.90;;;;;;10387081;28;20198;-84
2021/01/25 08:06:26;;;;;;;10.77;8.00;;;3.30;99.90;;;;;;10350601;28;20233;-82
2021/01/25 08:11:28;;;;;;;9.27;8.47;;;3.30;99.90;;;;;;10385147;28;20223;-82
2021/01/25 08:16:35;;;;;;;11.70;10.50;;;3.30;99.90;;;;;;10350255;28;20784;-82
2021/01/25 08:21:41;;;;;;;10.27;9.37;;;3.30;99.90;;;;;;10385783;28;20186;-82
2021/01/25 08:26:42;;;;;;;9.40;8.50;;;3.40;99.90;;;;;;10351702;28;20760;-83
2021/01/25 08:31:47;;;;;;;9.30;8.10;;;3.40;99.90;;;;;;10351976;28;20789;-83
2021/01/25 08:36:58;;;;;;;9.37;8.47;;;3.40;99.90;;;;;;10352744;28;20639;-84
2021/01/25 08:42:00;;;;;;;10.70;8.83;;;3.50;99.90;;;;;;10387244;28;20206;-83
2021/01/25 08:47:10;;;;;;;10.20;9.07;;;3.50;99.90;;;;;;10377892;28;20207;-81
2021/01/25 08:52:26;;;;;;;8.83;8.03;;;3.60;99.90;;;;;;10390025;28;20229;-83
2021/01/25 08:57:35;;;;;;;8.57;7.67;;;3.70;99.90;;;;;;10371345;28;20221;-83
2021/01/25 09:02:42;;;;;;;8.33;7.60;;;3.80;99.90;;;;;;10352060;28;20205;-83
2021/01/25 09:07:44;;;;;;;11.17;7.63;;;3.80;99.90;;;;;;10353840;28;20203;-83
2021/01/25 09:12:51;;;;;;;9.70;7.53;;;3.90;99.90;;;;;;10347281;28;20385;-83
2021/01/25 09:17:57;;;;;;;9.13;8.03;;;3.90;99.90;;;;;;10346454;28;20230;-82
2021/01/25 09:23:01;;;;;;;10.20;6.90;;;4.00;99.90;;;;;;10364777;28;20206;-82
2021/01/25 09:28:05;;;;;;;7.73;7.13;;;4.10;99.90;;;;;;10348634;28;20663;-82
2021/01/25 09:33:10;;;;;;;7.93;7.33;;;4.20;99.90;;;;;;10342355;28;20230;-83
2021/01/25 09:38:17;;;;;;;8.87;8.07;;;4.20;99.90;;;;;;10326159;28;20229;-81
2021/01/25 09:43:23;;;;;;;8.77;7.90;;;4.30;99.90;;;;;;10324313;28;20691;-83
2021/01/25 09:48:29;;;;;;;7.50;6.80;;;4.30;99.90;;;;;;10326755;28;20202;-85
2021/01/25 09:53:43;;;;;;;12.70;8.67;;;4.30;99.90;;;;;;10376033;23;20230;-83
2021/01/25 09:58:47;;;;;;;10.40;8.87;;;4.40;99.90;;;;;;10380964;28;20272;-82
2021/01/25 10:03:53;;;;;;;8.77;7.87;;;4.40;99.90;;;;;;10380315;28;20210;-84
2021/01/25 10:08:56;;;;;;;8.93;7.90;;;4.40;99.90;;;;;;10353837;28;20202;-81
2021/01/25 10:13:57;;;;;;;7.13;6.63;;;4.50;99.90;;;;;;10375406;28;20369;-80
2021/01/25 10:19:00;;;;;;;7.50;6.80;;;4.50;99.90;;;;;;10344119;28;20202;-82
2021/01/25 10:24:02;;;;;;;7.10;6.50;;;4.50;99.90;;;;;;10359129;28;20244;-80
2021/01/25 10:29:04;;;;;;;6.60;6.00;;;4.60;99.90;;;;;;10378709;28;20206;-81
2021/01/25 10:34:06;;;;;;;7.33;6.73;;;4.60;99.90;;;;;;10379682;28;20326;-82
2021/01/25 10:39:08;;;;;;;7.27;6.67;;;4.70;99.90;;;;;;10346736;28;20209;-82
2021/01/25 10:44:09;;;;;;;7.53;6.80;;;4.80;99.90;;;;;;10363274;28;20221;-84
2021/01/25 10:49:12;;;;;;;6.57;6.00;;;4.90;99.90;;;;;;10361417;28;20610;-86
2021/01/25 10:54:14;;;;;;;4.90;4.50;;;5.00;99.90;;;;;;10347069;28;20253;-85
2021/01/25 10:59:16;;;;;;;6.00;5.50;;;4.90;99.90;;;;;;10354657;28;20290;-85
2021/01/25 11:04:18;;;;;;;5.90;4.80;;;4.80;99.90;;;;;;10358113;28;20300;-83
2021/01/25 11:09:20;;;;;;;4.57;4.17;;;4.90;99.90;;;;;;10346017;28;20202;-80
2021/01/25 11:14:22;;;;;;;4.70;4.30;;;5.00;99.90;;;;;;10365124;28;20227;-83
2021/01/25 11:19:25;;;;;;;5.53;5.07;;;5.10;99.90;;;;;;10379837;23;20230;-78
2021/01/25 11:24:26;;;;;;;9.90;5.20;;;5.30;99.90;;;;;;10375714;28;20658;-78
2021/01/25 11:29:30;;;;;;;5.93;4.80;;;5.40;99.90;;;;;;10374257;28;20228;-78
2021/01/25 11:34:33;;;;;;;4.97;4.57;;;5.40;99.90;;;;;;10358416;28;20225;-78
2021/01/25 11:39:34;;;;;;;4.13;3.73;;;5.50;99.90;;;;;;10371323;28;20250;-78
2021/01/25 11:44:37;;;;;;;5.23;4.43;;;5.50;99.90;;;;;;10370318;28;20332;-78
2021/01/25 11:49:40;;;;;;;3.73;3.50;;;5.60;99.90;;;;;;10386210;28;20231;-78
2021/01/25 11:54:41;;;;;;;3.77;3.47;;;5.80;99.90;;;;;;10375620;28;20214;-78
2021/01/25 11:59:43;;;;;;;3.73;3.53;;;5.70;99.90;;;;;;10382247;28;20222;-78
2021/01/25 12:04:45;;;;;;;4.03;3.63;;;5.60;99.90;;;;;;10382299;28;20666;-78
2021/01/25 12:09:47;;;;;;;4.43;4.13;;;5.50;99.90;;;;;;10357103;28;20230;-78
2021/01/25 12:14:49;;;;;;;3.97;3.70;;;5.60;99.90;;;;;;10371592;28;20294;-78
2021/01/25 12:19:51;;;;;;;3.63;3.43;;;5.70;99.90;;;;;;10357630;28;20234;-78
2021/01/25 12:24:53;;;;;;;7.97;7.23;;;5.70;99.90;;;;;;10374310;28;20555;-77
2021/01/25 12:29:54;;;;;;;3.67;3.37;;;5.70;99.90;;;;;;10373070;28;20250;-78
2021/01/25 12:34:57;;;;;;;4.07;3.30;;;5.80;99.90;;;;;;10354851;28;20285;-77
2021/01/25 12:39:59;;;;;;;2.50;2.40;;;5.80;99.90;;;;;;10373590;28;20206;-78
2021/01/25 12:45:00;;;;;;;2.70;2.57;;;5.90;99.90;;;;;;10372984;28;20229;-78
2021/01/25 12:50:05;;;;;;;3.07;2.77;;;5.90;99.90;;;;;;10355537;28;20583;-78
2021/01/25 12:55:09;;;;;;;7.63;2.00;;;5.90;99.90;;;;;;10354161;28;20257;-78
2021/01/25 13:00:14;;;;;;;2.30;2.20;;;5.90;99.90;;;;;;10355658;28;20222;-78
2021/01/25 13:05:17;;;;;;;1.40;1.33;;;6.00;99.90;;;;;;10361335;28;20685;-78
2021/01/25 13:10:20;;;;;;;2.40;1.50;;;5.90;99.90;;;;;;10353018;28;20733;-78
2021/01/25 13:15:23;;;;;;;2.60;2.40;;;5.80;99.90;;;;;;10349372;28;20322;-77
2021/01/25 13:20:28;;;;;;;1.83;1.73;;;5.70;99.90;;;;;;10356272;28;20244;-77
2021/01/25 13:25:30;;;;;;;1.73;1.63;;;5.60;99.90;;;;;;10375417;28;20206;-78
2021/01/25 13:30:32;;;;;;;1.80;1.70;;;5.40;99.90;;;;;;10370380;28;20281;-78
2021/01/25 13:35:34;;;;;;;1.90;1.60;;;5.30;99.90;;;;;;10337799;28;20744;-77
2021/01/25 13:40:43;;;;;;;2.03;1.93;;;5.40;99.90;;;;;;10556957;27;20534;-77
2021/01/25 13:45:45;;;;;;;2.00;1.90;;;5.40;99.90;;;;;;10511623;28;20621;-77
2021/01/25 13:50:47;;;;;;;2.23;2.13;;;5.30;99.90;;;;;;10524382;28;20228;-78
2021/01/25 13:55:51;;;;;;;2.10;2.00;;;5.40;99.90;;;;;;10523752;28;20578;-78
2021/01/25 14:00:52;;;;;;;2.30;2.20;;;5.30;99.90;;;;;;10519723;28;20224;-78
2021/01/25 14:05:54;;;;;;;2.47;2.27;;;5.30;99.90;;;;;;10508618;28;20288;-77
2021/01/25 14:10:57;;;;;;;2.50;2.40;;;5.20;99.90;;;;;;10505105;28;20220;-77
2021/01/25 14:15:58;;;;;;;2.30;2.20;;;5.10;99.90;;;;;;10486598;28;20649;-78
2021/01/25 14:21:00;;;;;;;2.40;2.30;;;5.00;99.90;;;;;;10503458;28;20235;-78
2021/01/25 14:26:04;;;;;;;2.60;2.50;;;4.90;99.90;;;;;;10505091;28;20196;-77
2021/01/25 14:31:06;;;;;;;2.60;2.50;;;4.80;99.90;;;;;;10499438;28;21000;-78
2021/01/25 14:36:10;;;;;;;2.87;2.77;;;4.70;99.90;;;;;;10483507;28;20221;-78
2021/01/25 14:41:13;;;;;;;2.93;2.83;;;4.70;99.90;;;;;;10504835;28;20219;-78
2021/01/25 14:46:14;;;;;;;3.20;3.00;;;4.60;99.90;;;;;;10501101;28;20196;-78
2021/01/25 14:51:16;;;;;;;2.83;2.73;;;4.60;99.90;;;;;;10454311;28;20219;-78
2021/01/25 14:56:19;;;;;;;2.60;2.50;;;4.50;99.90;;;;;;10461746;28;20687;-78
2021/01/25 15:01:22;;;;;;;4.10;3.80;;;4.50;99.90;;;;;;10468844;28;20723;-78
2021/01/25 15:06:25;;;;;;;2.93;2.73;;;4.50;99.90;;;;;;10470574;28;20204;-77
2021/01/25 15:11:27;;;;;;;4.63;4.33;;;4.50;99.90;;;;;;10451783;28;20225;-78
2021/01/25 15:16:29;;;;;;;4.80;4.50;;;4.50;99.90;;;;;;10490749;28;20216;-78
2021/01/25 15:21:31;;;;;;;5.13;4.83;;;4.40;99.90;;;;;;10482535;28;20333;-78
2021/01/25 15:26:33;;;;;;;5.17;4.77;;;4.50;99.90;;;;;;10456495;28;20603;-78
2021/01/25 15:31:35;;;;;;;5.50;5.20;;;4.40;99.90;;;;;;10455497;28;20596;-78
2021/01/25 15:36:37;;;;;;;5.30;4.90;;;4.30;99.90;;;;;;10494458;28;20212;-78
2021/01/25 15:41:42;;;;;;;5.43;5.13;;;4.20;99.90;;;;;;10477074;28;20286;-78
2021/01/25 15:46:44;;;;;;;5.10;4.80;;;4.20;99.90;;;;;;10477289;28;20705;-78
2021/01/25 15:51:45;;;;;;;5.30;5.00;;;4.10;99.90;;;;;;10481920;28;20237;-78
2021/01/25 15:56:48;;;;;;;6.10;5.70;;;4.10;99.90;;;;;;10470284;28;20224;-78
2021/01/25 16:01:49;;;;;;;5.10;4.80;;;4.20;99.90;;;;;;10481561;28;20222;-78
2021/01/25 16:06:52;;;;;;;4.80;4.50;;;4.20;99.90;;;;;;10477887;28;20192;-78
2021/01/25 16:11:54;;;;;;;5.40;5.00;;;4.10;99.90;;;;;;10479958;28;20277;-78
2021/01/25 16:16:57;;;;;;;5.43;5.03;;;4.10;99.90;;;;;;10475408;28;20289;-78
2021/01/25 16:21:58;;;;;;;5.20;4.80;;;4.10;99.90;;;;;;10482957;28;20224;-78
2021/01/25 16:27:01;;;;;;;4.50;4.27;;;4.20;99.90;;;;;;10461757;28;20291;-78
2021/01/25 16:32:03;;;;;;;5.87;5.43;;;4.20;99.90;;;;;;10479059;28;20224;-78
2021/01/25 16:37:06;;;;;;;6.50;6.07;;;4.20;99.90;;;;;;10476852;28;20599;-78
2021/01/25 16:42:09;;;;;;;7.53;6.83;;;4.20;99.90;;;;;;10459990;28;20529;-78
2021/01/25 16:47:11;;;;;;;6.63;6.13;;;4.20;99.90;;;;;;10481219;28;20203;-78
2021/01/25 16:52:12;;;;;;;6.90;6.40;;;4.20;99.90;;;;;;10485324;28;20213;-78
2021/01/25 16:57:15;;;;;;;6.67;6.17;;;4.20;99.90;;;;;;10489163;28;20223;-78
2021/01/25 17:02:17;;;;;;;7.00;6.50;;;4.20;99.90;;;;;;10475805;28;20243;-78
2021/01/25 17:07:18;;;;;;;7.30;6.70;;;4.20;99.90;;;;;;10489722;28;20190;-78
2021/01/25 17:12:21;;;;;;;7.30;6.70;;;4.20;99.90;;;;;;10471049;28;20220;-78
2021/01/25 17:17:23;;;;;;;6.27;5.77;;;4.20;99.90;;;;;;10477564;28;20220;-78
2021/01/25 17:22:24;;;;;;;6.50;6.00;;;4.30;99.90;;;;;;10420252;23;20309;-83
2021/01/25 17:27:27;;;;;;;6.23;5.73;;;4.30;99.90;;;;;;10367299;28;20187;-81
2021/01/25 17:32:29;;;;;;;5.97;5.57;;;4.40;99.90;;;;;;10352390;28;20272;-83
2021/01/25 17:37:30;;;;;;;5.47;5.07;;;4.40;99.90;;;;;;10357301;28;20683;-83
2021/01/25 17:42:35;;;;;;;5.00;4.70;;;4.30;99.90;;;;;;10353506;28;20293;-80
2021/01/25 17:47:38;;;;;;;3.70;3.50;;;4.30;99.90;;;;;;10355996;28;20191;-83
2021/01/25 17:52:43;;;;;;;3.53;3.33;;;4.20;99.90;;;;;;10356272;28;20729;-82
2021/01/25 17:57:47;;;;;;;3.37;3.17;;;4.10;99.90;;;;;;10358587;28;20225;-83
2021/01/25 18:02:49;;;;;;;3.40;3.20;;;4.10;99.90;;;;;;10356640;28;20219;-83
2021/01/25 18:07:57;;;;;;;3.90;3.70;;;4.00;99.90;;;;;;10363423;28;20195;-82
2021/01/25 18:12:59;;;;;;;5.50;5.20;;;4.00;99.90;;;;;;10352039;28;20221;-81
2021/01/25 18:18:04;;;;;;;5.87;5.57;;;4.00;99.90;;;;;;10332790;28;20218;-81
2021/01/25 18:23:06;;;;;;;5.60;5.30;;;4.00;99.90;;;;;;10330986;28;20240;-83
2021/01/25 18:28:09;;;;;;;6.40;6.00;;;4.00;99.90;;;;;;10353392;28;20199;-82
2021/01/25 18:33:10;;;;;;;6.20;5.80;;;4.00;99.90;;;;;;10336079;28;20704;-83
2021/01/25 18:38:12;;;;;;;5.80;5.50;;;4.10;99.90;;;;;;10365289;28;20267;-83
2021/01/25 18:43:16;;;;;;;5.13;4.83;;;4.10;99.90;;;;;;10364141;28;20218;-86
2021/01/25 18:48:17;;;;;;;5.77;5.47;;;4.00;99.90;;;;;;10337405;28;20195;-84
2021/01/25 18:53:19;;;;;;;7.00;6.50;;;4.00;99.90;;;;;;10346527;28;20331;-83
2021/01/25 18:58:22;;;;;;;5.57;5.20;;;4.00;99.90;;;;;;10348745;28;20215;-81
2021/01/25 19:03:23;;;;;;;6.50;6.10;;;4.00;99.90;;;;;;10356194;28;20594;-81
2021/01/25 19:08:25;;;;;;;6.63;6.13;;;4.00;99.90;;;;;;10364338;28;20256;-80
2021/01/25 19:13:28;;;;;;;6.90;6.50;;;4.00;99.90;;;;;;10353051;28;20641;-83
2021/01/25 19:18:29;;;;;;;6.03;5.53;;;4.00;99.90;;;;;;10351094;28;20322;-83
2021/01/25 19:23:31;;;;;;;7.40;6.80;;;4.00;99.90;;;;;;10353734;28;20587;-83
2021/01/25 19:28:34;;;;;;;5.93;5.53;;;4.00;99.90;;;;;;10352743;28;20180;-83
2021/01/25 19:33:35;;;;;;;6.87;6.37;;;4.00;99.90;;;;;;10331778;28;20272;-81
2021/01/25 19:38:37;;;;;;;6.73;6.33;;;3.90;99.90;;;;;;10333592;28;20214;-83
2021/01/25 19:43:40;;;;;;;6.80;6.30;;;3.90;99.90;;;;;;10330473;28;20242;-84
2021/01/25 19:48:41;;;;;;;6.50;6.10;;;3.90;99.90;;;;;;10353496;28;20254;-80
2021/01/25 19:53:43;;;;;;;7.47;6.90;;;3.90;99.90;;;;;;10345226;28;20227;-81
2021/01/25 19:58:46;;;;;;;6.60;6.20;;;3.80;99.90;;;;;;10370108;28;20241;-83
2021/01/25 20:03:48;;;;;;;7.57;7.07;;;3.80;99.90;;;;;;10349401;28;20571;-81
2021/01/25 20:08:49;;;;;;;7.10;6.60;;;3.70;99.90;;;;;;10351256;28;20205;-83
2021/01/25 20:13:53;;;;;;;7.30;6.77;;;3.70;99.90;;;;;;10351210;28;20225;-84
2021/01/25 20:18:54;;;;;;;7.50;6.97;;;3.70;99.90;;;;;;10353984;28;20227;-83
2021/01/25 20:23:56;;;;;;;7.40;6.80;;;3.80;99.90;;;;;;10350484;28;20233;-82
2021/01/25 20:28:59;;;;;;;8.17;7.30;;;3.90;99.90;;;;;;10352435;28;20202;-82
2021/01/25 20:34:01;;;;;;;8.20;7.47;;;4.00;99.90;;;;;;10347521;28;20225;-82
2021/01/25 20:39:04;;;;;;;8.30;7.50;;;4.00;99.90;;;;;;10354341;28;20214;-83
2021/01/25 20:44:09;;;;;;;9.70;8.87;;;4.10;99.90;;;;;;10351981;28;20283;-83
2021/01/25 20:49:11;;;;;;;9.57;8.87;;;4.10;99.90;;;;;;10351399;28;20302;-83
2021/01/25 20:54:13;;;;;;;8.53;7.43;;;4.20;99.90;;;;;;10360064;28;20202;-81
2021/01/25 20:59:16;;;;;;;9.50;8.70;;;4.20;99.90;;;;;;10365065;28;20233;-81
2021/01/25 21:04:17;;;;;;;8.93;8.27;;;4.20;99.90;;;;;;10345236;28;20235;-83
2021/01/25 21:09:19;;;;;;;9.70;8.93;;;3.90;99.90;;;;;;10363525;28;20194;-82
2021/01/25 21:14:22;;;;;;;10.87;9.97;;;3.90;99.90;;;;;;10351850;28;20574;-83
2021/01/25 21:19:23;;;;;;;10.77;9.73;;;3.80;99.90;;;;;;10339321;28;20702;-85
2021/01/25 21:24:25;;;;;;;11.00;10.10;;;3.80;99.90;;;;;;10351721;28;20214;-83
2021/01/25 21:29:28;;;;;;;11.47;10.47;;;3.80;99.90;;;;;;10343558;28;20716;-83
2021/01/25 21:34:29;;;;;;;10.80;9.90;;;3.80;99.90;;;;;;10348325;28;20604;-82
2021/01/25 21:39:31;;;;;;;11.37;10.47;;;3.80;99.90;;;;;;10355410;28;20241;-82
2021/01/25 21:44:34;;;;;;;11.83;10.83;;;3.80;99.90;;;;;;10359125;28;20313;-83
2021/01/25 21:49:36;;;;;;;12.40;11.37;;;3.80;99.90;;;;;;10366905;28;20317;-81
2021/01/25 21:54:38;;;;;;;11.70;10.63;;;3.80;99.90;;;;;;10351295;28;20210;-83
2021/01/25 21:59:41;;;;;;;11.90;10.90;;;3.80;99.90;;;;;;10368852;28;20325;-82
2021/01/25 22:04:59;;;;;;;12.37;11.37;;;3.80;99.90;;;;;;10366161;28;20574;-82
2021/01/25 22:10:05;;;;;;;12.53;11.53;;;3.80;99.90;;;;;;10365289;28;20312;-81
2021/01/25 22:15:17;;;;;;;13.53;12.40;;;3.80;99.90;;;;;;10365212;28;20790;-83
2021/01/25 22:20:21;;;;;;;13.30;12.10;;;3.80;99.90;;;;;;10368119;28;20317;-83
2021/01/25 22:25:51;;;;;;;13.10;12.00;;;3.70;99.90;;;;;;10378529;28;20690;-83
2021/01/25 22:30:57;;;;;;;14.80;13.40;;;3.80;99.90;;;;;;10356774;28;20719;-82
2021/01/25 22:35:58;;;;;;;15.70;14.17;;;3.80;99.90;;;;;;10382817;28;20202;-81
2021/01/25 22:41:03;;;;;;;13.80;12.60;;;3.90;99.90;;;;;;10372145;28;20226;-82
2021/01/25 22:46:06;;;;;;;13.07;11.90;;;3.90;99.90;;;;;;10362996;28;20567;-80
2021/01/25 22:51:07;;;;;;;14.10;12.80;;;3.90;99.90;;;;;;10365285;28;20256;-81
2021/01/25 22:56:09;;;;;;;12.80;11.60;;;3.90;99.90;;;;;;10364942;28;20199;-82
2021/01/25 23:01:12;;;;;;;12.50;11.33;;;3.90;99.90;;;;;;10377963;28;20572;-81
2021/01/25 23:06:13;;;;;;;13.93;12.63;;;3.90;99.90;;;;;;10378974;28;20205;-80
2021/01/25 23:11:15;;;;;;;11.40;10.40;;;3.90;99.90;;;;;;10381587;28;20281;-83
2021/01/25 23:16:18;;;;;;;12.17;11.17;;;3.90;99.90;;;;;;10362424;28;20217;-82
2021/01/25 23:21:21;;;;;;;13.13;11.93;;;3.90;99.90;;;;;;10391025;23;20575;-78
2021/01/25 23:26:25;;;;;;;13.90;12.60;;;3.90;99.90;;;;;;10376313;28;20198;-78
2021/01/25 23:31:28;;;;;;;13.00;11.80;;;4.00;99.90;;;;;;10375197;28;20261;-78
2021/01/25 23:36:30;;;;;;;12.20;11.00;;;3.90;99.90;;;;;;10349393;28;20282;-78
2021/01/25 23:41:31;;;;;;;12.70;11.47;;;3.90;99.90;;;;;;10324295;28;20219;-78
2021/01/25 23:46:34;;;;;;;12.50;11.30;;;3.90;99.90;;;;;;10325747;28;20296;-78
2021/01/25 23:51:35;;;;;;;12.67;11.50;;;3.90;99.90;;;;;;10326302;28;20215;-78
2021/01/25 23:56:37;;;;;;;11.63;10.57;;;3.90;99.90;;;;;;10325292;28;20215;-78
